RYR69WA EPWR-EIDW
Flight info
| Callsign | RYR69WA |
|---|---|
| Flight time | 2h 5m |
| Altitude | 38000 |
| Route | ULGIL Z348 RENDO DCT OSTRA DCT KUMER DCT RKN DCT SPY DCT RAVLO Y70 OTBED L60 PENIL UL28 LELDO M145 BAGSO BAGSO4L |
| Aircraft | B38M/M-SDE1FGHILORVWXY/HB1 |
Departure
| Time | 2026-05-01 13:18 |
|---|---|
| Airport | Copernicus Wrocław Airport (EPWR) |
Arrival
| Time | 2026-05-01 15:24 |
|---|---|
| Airport | Dublin Airport (EIDW) |
| Time | Latitude | Longitude | Altitude | Speed | Heading |
|---|---|---|---|---|---|
| 2026-05-01 12:58 | 51.10898 | 16.87882 | 402 ft | 0 kts | 25° |
| 2026-05-01 13:09 | 51.10889 | 16.87875 | 406 ft | 3 kts | 26° |
| 2026-05-01 13:09 | 51.10868 | 16.87856 | 403 ft | 3 kts | 39° |
| 2026-05-01 13:10 | 51.10853 | 16.87828 | 401 ft | 3 kts | 67° |
| 2026-05-01 13:10 | 51.10850 | 16.87795 | 401 ft | 3 kts | 110° |
| 2026-05-01 13:10 | 51.10854 | 16.87780 | 400 ft | 1 kts | 116° |
| 2026-05-01 13:12 | 51.10852 | 16.87786 | 402 ft | 2 kts | 116° |
| 2026-05-01 13:13 | 51.10844 | 16.87813 | 401 ft | 4 kts | 116° |
| 2026-05-01 13:13 | 51.10829 | 16.87861 | 404 ft | 6 kts | 116° |
| 2026-05-01 13:13 | 51.10808 | 16.87930 | 406 ft | 8 kts | 116° |
| 2026-05-01 13:13 | 51.10781 | 16.88019 | 401 ft | 10 kts | 116° |
| 2026-05-01 13:14 | 51.10748 | 16.88127 | 403 ft | 12 kts | 116° |
| 2026-05-01 13:14 | 51.10708 | 16.88256 | 406 ft | 14 kts | 116° |
| 2026-05-01 13:14 | 51.10662 | 16.88405 | 404 ft | 16 kts | 116° |
| 2026-05-01 13:14 | 51.10610 | 16.88577 | 406 ft | 18 kts | 116° |
| 2026-05-01 13:15 | 51.10551 | 16.88770 | 406 ft | 21 kts | 116° |
| 2026-05-01 13:15 | 51.10485 | 16.88985 | 406 ft | 23 kts | 116° |
| 2026-05-01 13:15 | 51.10413 | 16.89223 | 404 ft | 25 kts | 116° |
| 2026-05-01 13:15 | 51.10333 | 16.89483 | 406 ft | 27 kts | 116° |
| 2026-05-01 13:16 | 51.10246 | 16.89763 | 406 ft | 29 kts | 116° |
| 2026-05-01 13:16 | 51.10177 | 16.89971 | 406 ft | 11 kts | 147° |
| 2026-05-01 13:16 | 51.10100 | 16.89937 | 403 ft | 13 kts | 206° |
| 2026-05-01 13:17 | 51.09908 | 16.89762 | 405 ft | 4 kts | 276° |
| 2026-05-01 13:17 | 51.09919 | 16.89717 | 404 ft | 6 kts | 294° |
| 2026-05-01 13:18 | 51.10317 | 16.88419 | 408 ft | 137 kts | 295° |
| 2026-05-01 13:18 | 51.10826 | 16.86773 | 636 ft | 180 kts | 301° |
| 2026-05-01 13:18 | 51.11407 | 16.84943 | 1438 ft | 195 kts | 300° |
| 2026-05-01 13:18 | 51.12035 | 16.82888 | 2165 ft | 220 kts | 299° |
| 2026-05-01 13:19 | 51.12665 | 16.80545 | 2894 ft | 238 kts | 288° |
| 2026-05-01 13:19 | 51.12676 | 16.77880 | 3802 ft | 254 kts | 258° |
| 2026-05-01 13:19 | 51.10058 | 16.73723 | 5176 ft | 291 kts | 204° |
| 2026-05-01 13:20 | 51.08239 | 16.72298 | 6173 ft | 293 kts | 216° |
| 2026-05-01 13:20 | 51.06810 | 16.69992 | 7037 ft | 293 kts | 242° |
| 2026-05-01 13:20 | 51.06027 | 16.67056 | 8052 ft | 291 kts | 250° |
| 2026-05-01 13:21 | 51.04239 | 16.61080 | 9682 ft | 305 kts | 243° |
| 2026-05-01 13:21 | 51.03207 | 16.58095 | 10470 ft | 311 kts | 242° |
| 2026-05-01 13:21 | 51.02102 | 16.55051 | 10974 ft | 328 kts | 240° |
| 2026-05-01 13:21 | 51.01121 | 16.51679 | 11300 ft | 345 kts | 259° |
| 2026-05-01 13:22 | 51.00997 | 16.47861 | 11643 ft | 355 kts | 283° |
| 2026-05-01 13:22 | 51.01665 | 16.44037 | 12063 ft | 366 kts | 291° |
| 2026-05-01 13:22 | 51.02432 | 16.40122 | 12638 ft | 374 kts | 291° |
| 2026-05-01 13:22 | 51.03208 | 16.36155 | 13397 ft | 379 kts | 292° |
| 2026-05-01 13:23 | 51.03997 | 16.32129 | 14073 ft | 384 kts | 292° |
| 2026-05-01 13:23 | 51.04795 | 16.28054 | 14747 ft | 388 kts | 291° |
| 2026-05-01 13:23 | 51.05601 | 16.23929 | 15378 ft | 393 kts | 291° |
| 2026-05-01 13:23 | 51.06416 | 16.19752 | 16031 ft | 397 kts | 291° |
| 2026-05-01 13:24 | 51.07236 | 16.15544 | 16689 ft | 401 kts | 292° |
| 2026-05-01 13:24 | 51.08053 | 16.11339 | 17335 ft | 404 kts | 292° |
| 2026-05-01 13:24 | 51.08885 | 16.07046 | 17978 ft | 408 kts | 292° |
| 2026-05-01 13:25 | 51.10146 | 15.98133 | 19187 ft | 420 kts | 281° |
| 2026-05-01 13:25 | 51.10487 | 15.93503 | 19738 ft | 423 kts | 281° |
| 2026-05-01 13:25 | 51.10833 | 15.88829 | 20291 ft | 426 kts | 281° |
| 2026-05-01 13:25 | 51.11178 | 15.84120 | 20836 ft | 429 kts | 281° |
| 2026-05-01 13:26 | 51.11521 | 15.79396 | 21364 ft | 431 kts | 280° |
| 2026-05-01 13:26 | 51.11865 | 15.74645 | 21939 ft | 433 kts | 280° |
| 2026-05-01 13:26 | 51.12208 | 15.69861 | 22453 ft | 437 kts | 280° |
| 2026-05-01 13:26 | 51.12552 | 15.65041 | 22988 ft | 439 kts | 280° |
| 2026-05-01 13:27 | 51.12977 | 15.60281 | 23492 ft | 439 kts | 286° |
| 2026-05-01 13:27 | 51.13620 | 15.55511 | 23989 ft | 442 kts | 285° |
| 2026-05-01 13:27 | 51.14851 | 15.45868 | 24841 ft | 447 kts | 285° |
| 2026-05-01 13:28 | 51.16057 | 15.36102 | 25646 ft | 451 kts | 284° |
| 2026-05-01 13:28 | 51.16658 | 15.31196 | 26084 ft | 452 kts | 284° |
| 2026-05-01 13:29 | 51.17862 | 15.21305 | 26867 ft | 457 kts | 284° |
| 2026-05-01 13:29 | 51.19071 | 15.11303 | 27634 ft | 461 kts | 284° |
| 2026-05-01 13:30 | 51.20949 | 14.90906 | 29092 ft | 472 kts | 280° |
| 2026-05-01 13:31 | 51.21700 | 14.80488 | 29854 ft | 474 kts | 279° |
| 2026-05-01 13:31 | 51.22838 | 14.64712 | 30886 ft | 477 kts | 279° |
| 2026-05-01 13:32 | 51.23565 | 14.54203 | 31695 ft | 475 kts | 279° |
| 2026-05-01 13:33 | 51.24603 | 14.38620 | 32866 ft | 471 kts | 278° |
| 2026-05-01 13:33 | 51.25283 | 14.28252 | 33644 ft | 469 kts | 278° |
| 2026-05-01 13:34 | 51.25951 | 14.17922 | 34373 ft | 467 kts | 278° |
| 2026-05-01 13:34 | 51.26609 | 14.07622 | 34998 ft | 465 kts | 278° |
| 2026-05-01 13:35 | 51.27255 | 13.97349 | 35393 ft | 465 kts | 278° |
| 2026-05-01 13:35 | 51.27575 | 13.92220 | 35365 ft | 463 kts | 278° |
| 2026-05-01 13:36 | 51.27905 | 13.76788 | 35376 ft | 464 kts | 274° |
| 2026-05-01 13:36 | 51.28157 | 13.61339 | 35379 ft | 464 kts | 274° |
| 2026-05-01 13:37 | 51.28319 | 13.51025 | 35382 ft | 464 kts | 274° |
| 2026-05-01 13:37 | 51.28471 | 13.40712 | 35376 ft | 463 kts | 273° |
| 2026-05-01 13:38 | 51.28683 | 13.25341 | 35389 ft | 464 kts | 273° |
| 2026-05-01 13:39 | 51.28813 | 13.15027 | 35389 ft | 464 kts | 273° |
| 2026-05-01 13:39 | 51.28935 | 13.04714 | 35391 ft | 464 kts | 273° |
| 2026-05-01 13:40 | 51.29048 | 12.94417 | 35374 ft | 463 kts | 273° |
| 2026-05-01 13:40 | 51.29840 | 12.84299 | 35402 ft | 459 kts | 283° |
| 2026-05-01 13:41 | 51.31008 | 12.74259 | 35390 ft | 459 kts | 282° |
| 2026-05-01 13:41 | 51.32181 | 12.64225 | 35384 ft | 459 kts | 282° |
| 2026-05-01 13:42 | 51.33339 | 12.54238 | 35393 ft | 459 kts | 282° |
| 2026-05-01 13:42 | 51.34497 | 12.44191 | 35394 ft | 458 kts | 282° |
| 2026-05-01 13:43 | 51.35644 | 12.34151 | 35397 ft | 458 kts | 282° |
| 2026-05-01 13:43 | 51.36781 | 12.24116 | 35401 ft | 458 kts | 282° |
| 2026-05-01 13:44 | 51.37910 | 12.14079 | 35385 ft | 458 kts | 282° |
| 2026-05-01 13:44 | 51.39030 | 12.04034 | 35374 ft | 458 kts | 281° |
| 2026-05-01 13:45 | 51.40142 | 11.93987 | 35385 ft | 458 kts | 281° |
| 2026-05-01 13:45 | 51.41242 | 11.83952 | 35386 ft | 458 kts | 281° |
| 2026-05-01 13:46 | 51.42327 | 11.73981 | 35384 ft | 458 kts | 281° |
| 2026-05-01 13:46 | 51.43412 | 11.63928 | 35382 ft | 458 kts | 281° |
| 2026-05-01 13:47 | 51.44489 | 11.53856 | 35378 ft | 458 kts | 281° |
| 2026-05-01 13:47 | 51.45556 | 11.43809 | 35383 ft | 457 kts | 281° |
| 2026-05-01 13:48 | 51.46615 | 11.33741 | 35384 ft | 458 kts | 281° |
| 2026-05-01 13:48 | 51.47659 | 11.23727 | 35385 ft | 457 kts | 281° |
| 2026-05-01 13:49 | 51.48700 | 11.13659 | 35379 ft | 458 kts | 281° |
| 2026-05-01 13:49 | 51.49730 | 11.03604 | 35379 ft | 454 kts | 280° |
| 2026-05-01 13:50 | 51.50747 | 10.93607 | 35379 ft | 453 kts | 279° |
| 2026-05-01 13:50 | 51.51754 | 10.83598 | 35380 ft | 453 kts | 280° |
| 2026-05-01 13:51 | 51.52755 | 10.73601 | 35378 ft | 454 kts | 280° |
| 2026-05-01 13:51 | 51.53777 | 10.63651 | 35367 ft | 453 kts | 284° |
| 2026-05-01 13:52 | 51.55407 | 10.53900 | 35370 ft | 452 kts | 286° |
| 2026-05-01 13:52 | 51.56790 | 10.45792 | 35375 ft | 452 kts | 285° |
| 2026-05-01 13:53 | 51.58453 | 10.36025 | 35369 ft | 453 kts | 286° |
| 2026-05-01 13:53 | 51.60932 | 10.21369 | 35362 ft | 453 kts | 285° |
| 2026-05-01 13:54 | 51.62567 | 10.11627 | 35359 ft | 453 kts | 285° |
| 2026-05-01 13:54 | 51.64203 | 10.01837 | 35351 ft | 453 kts | 285° |
| 2026-05-01 13:55 | 51.65830 | 9.92027 | 35349 ft | 452 kts | 285° |
| 2026-05-01 13:55 | 51.67446 | 9.82235 | 35347 ft | 453 kts | 285° |
| 2026-05-01 13:56 | 51.69054 | 9.72440 | 35348 ft | 453 kts | 285° |
| 2026-05-01 13:56 | 51.70652 | 9.62647 | 35345 ft | 451 kts | 285° |
| 2026-05-01 13:57 | 51.72239 | 9.52860 | 35347 ft | 451 kts | 285° |
| 2026-05-01 13:57 | 51.73810 | 9.43124 | 35347 ft | 452 kts | 285° |
| 2026-05-01 13:58 | 51.75382 | 9.33314 | 35338 ft | 451 kts | 285° |
| 2026-05-01 13:58 | 51.76944 | 9.23516 | 35336 ft | 451 kts | 285° |
| 2026-05-01 13:59 | 51.78499 | 9.13701 | 35338 ft | 452 kts | 285° |
| 2026-05-01 13:59 | 51.80048 | 9.03870 | 35337 ft | 451 kts | 285° |
| 2026-05-01 14:00 | 51.81584 | 8.94052 | 35329 ft | 450 kts | 285° |
| 2026-05-01 14:00 | 51.83106 | 8.84284 | 35335 ft | 451 kts | 284° |
| 2026-05-01 14:01 | 51.84631 | 8.74422 | 35331 ft | 450 kts | 285° |
| 2026-05-01 14:01 | 51.86138 | 8.64623 | 35317 ft | 447 kts | 284° |
| 2026-05-01 14:02 | 51.87637 | 8.54817 | 35312 ft | 449 kts | 284° |
| 2026-05-01 14:02 | 51.89130 | 8.44985 | 35316 ft | 449 kts | 284° |
| 2026-05-01 14:03 | 51.90575 | 8.35407 | 35306 ft | 449 kts | 284° |
| 2026-05-01 14:03 | 51.92048 | 8.25591 | 35309 ft | 448 kts | 284° |
| 2026-05-01 14:04 | 51.93517 | 8.15743 | 35309 ft | 449 kts | 284° |
| 2026-05-01 14:04 | 51.94973 | 8.05912 | 35305 ft | 447 kts | 284° |
| 2026-05-01 14:05 | 51.96420 | 7.96094 | 35300 ft | 448 kts | 284° |
| 2026-05-01 14:05 | 51.97861 | 7.86241 | 35294 ft | 449 kts | 284° |
| 2026-05-01 14:06 | 51.99291 | 7.76412 | 35295 ft | 444 kts | 284° |
| 2026-05-01 14:06 | 52.00688 | 7.66740 | 35292 ft | 444 kts | 283° |
| 2026-05-01 14:07 | 52.02095 | 7.56945 | 35290 ft | 446 kts | 283° |
| 2026-05-01 14:08 | 52.04184 | 7.42276 | 35284 ft | 443 kts | 283° |
| 2026-05-01 14:08 | 52.05564 | 7.32501 | 35285 ft | 444 kts | 283° |
| 2026-05-01 14:09 | 52.06941 | 7.22699 | 35286 ft | 445 kts | 283° |
| 2026-05-01 14:09 | 52.08305 | 7.12922 | 35281 ft | 441 kts | 283° |
| 2026-05-01 14:10 | 52.09652 | 7.03223 | 35281 ft | 443 kts | 283° |
| 2026-05-01 14:10 | 52.11006 | 6.93413 | 35274 ft | 445 kts | 283° |
| 2026-05-01 14:11 | 52.12350 | 6.83608 | 35276 ft | 443 kts | 282° |
| 2026-05-01 14:11 | 52.14940 | 6.69173 | 35258 ft | 444 kts | 289° |
| 2026-05-01 14:12 | 52.17036 | 6.59676 | 35281 ft | 446 kts | 289° |
| 2026-05-01 14:12 | 52.19130 | 6.50196 | 35267 ft | 444 kts | 289° |
| 2026-05-01 14:13 | 52.20861 | 6.42327 | 35267 ft | 443 kts | 289° |
| 2026-05-01 14:13 | 52.23279 | 6.31283 | 35268 ft | 447 kts | 289° |
| 2026-05-01 14:14 | 52.25360 | 6.21736 | 35261 ft | 448 kts | 289° |
| 2026-05-01 14:14 | 52.27436 | 6.12160 | 35259 ft | 446 kts | 289° |
| 2026-05-01 14:15 | 52.29502 | 6.02592 | 35260 ft | 445 kts | 288° |
| 2026-05-01 14:15 | 52.31544 | 5.93092 | 35252 ft | 447 kts | 287° |
| 2026-05-01 14:16 | 52.33602 | 5.83463 | 35251 ft | 450 kts | 288° |
| 2026-05-01 14:16 | 52.35664 | 5.73780 | 35244 ft | 449 kts | 288° |
| 2026-05-01 14:17 | 52.37711 | 5.64119 | 35246 ft | 449 kts | 287° |
| 2026-05-01 14:17 | 52.39749 | 5.54455 | 35239 ft | 449 kts | 288° |
| 2026-05-01 14:18 | 52.41777 | 5.44783 | 35235 ft | 449 kts | 287° |
| 2026-05-01 14:18 | 52.43462 | 5.36717 | 35239 ft | 451 kts | 287° |
| 2026-05-01 14:19 | 52.45811 | 5.25422 | 35240 ft | 450 kts | 287° |
| 2026-05-01 14:19 | 52.47820 | 5.15705 | 35233 ft | 450 kts | 287° |
| 2026-05-01 14:20 | 52.50826 | 5.01080 | 35235 ft | 451 kts | 287° |
| 2026-05-01 14:21 | 52.52823 | 4.91320 | 35237 ft | 451 kts | 287° |
| 2026-05-01 14:21 | 52.54945 | 4.81625 | 35238 ft | 452 kts | 289° |
| 2026-05-01 14:22 | 52.58269 | 4.67128 | 35234 ft | 451 kts | 289° |
| 2026-05-01 14:22 | 52.60466 | 4.57453 | 35231 ft | 451 kts | 289° |
| 2026-05-01 14:23 | 52.62658 | 4.47760 | 35233 ft | 452 kts | 289° |
| 2026-05-01 14:23 | 52.64827 | 4.38118 | 35230 ft | 452 kts | 289° |
| 2026-05-01 14:24 | 52.67003 | 4.28408 | 35233 ft | 451 kts | 289° |
| 2026-05-01 14:24 | 52.69169 | 4.18692 | 35234 ft | 451 kts | 288° |
| 2026-05-01 14:25 | 52.71327 | 4.08965 | 35232 ft | 451 kts | 288° |
| 2026-05-01 14:25 | 52.73474 | 3.99245 | 35235 ft | 451 kts | 288° |
| 2026-05-01 14:26 | 52.76672 | 3.84684 | 35230 ft | 452 kts | 288° |
| 2026-05-01 14:27 | 52.78804 | 3.74915 | 35226 ft | 452 kts | 288° |
| 2026-05-01 14:27 | 52.80929 | 3.65134 | 35230 ft | 452 kts | 288° |
| 2026-05-01 14:28 | 52.84098 | 3.50460 | 35240 ft | 452 kts | 287° |
| 2026-05-01 14:28 | 52.86206 | 3.40639 | 35224 ft | 453 kts | 287° |
| 2026-05-01 14:29 | 52.88308 | 3.30806 | 35222 ft | 453 kts | 287° |
| 2026-05-01 14:30 | 52.92193 | 3.10991 | 35228 ft | 450 kts | 280° |
| 2026-05-01 14:31 | 52.94223 | 2.95765 | 35224 ft | 452 kts | 279° |
| 2026-05-01 14:31 | 52.95550 | 2.85639 | 35217 ft | 452 kts | 279° |
| 2026-05-01 14:32 | 52.96878 | 2.75432 | 35212 ft | 452 kts | 279° |
| 2026-05-01 14:32 | 52.98195 | 2.65235 | 35216 ft | 451 kts | 279° |
| 2026-05-01 14:33 | 52.99499 | 2.55064 | 35204 ft | 450 kts | 279° |
| 2026-05-01 14:33 | 53.00796 | 2.44877 | 35209 ft | 451 kts | 278° |
| 2026-05-01 14:34 | 53.02079 | 2.34723 | 35203 ft | 451 kts | 278° |
| 2026-05-01 14:34 | 53.03361 | 2.24503 | 35203 ft | 451 kts | 278° |
| 2026-05-01 14:35 | 53.04633 | 2.14298 | 35195 ft | 451 kts | 278° |
| 2026-05-01 14:35 | 53.05893 | 2.04083 | 35195 ft | 451 kts | 278° |
| 2026-05-01 14:36 | 53.07140 | 1.93911 | 35192 ft | 452 kts | 277° |
| 2026-05-01 14:36 | 53.08386 | 1.83669 | 35190 ft | 452 kts | 277° |
| 2026-05-01 14:37 | 53.09624 | 1.73417 | 35186 ft | 452 kts | 277° |
| 2026-05-01 14:37 | 53.10855 | 1.63150 | 35184 ft | 452 kts | 277° |
| 2026-05-01 14:38 | 53.12075 | 1.52886 | 35171 ft | 452 kts | 277° |
| 2026-05-01 14:38 | 53.13288 | 1.42605 | 35163 ft | 452 kts | 277° |
| 2026-05-01 14:39 | 53.14484 | 1.32384 | 35163 ft | 452 kts | 277° |
| 2026-05-01 14:39 | 53.15680 | 1.22091 | 35157 ft | 452 kts | 277° |
| 2026-05-01 14:40 | 53.16863 | 1.11814 | 35159 ft | 452 kts | 276° |
| 2026-05-01 14:40 | 53.18041 | 1.01512 | 35170 ft | 452 kts | 276° |
| 2026-05-01 14:41 | 53.19013 | 0.92942 | 35139 ft | 452 kts | 276° |
| 2026-05-01 14:41 | 53.20174 | 0.82627 | 35144 ft | 452 kts | 276° |
| 2026-05-01 14:42 | 53.21327 | 0.72311 | 35142 ft | 452 kts | 276° |
| 2026-05-01 14:42 | 53.22472 | 0.61995 | 35139 ft | 452 kts | 276° |
| 2026-05-01 14:43 | 53.23602 | 0.51676 | 35145 ft | 452 kts | 276° |
| 2026-05-01 14:43 | 53.24725 | 0.41355 | 35141 ft | 450 kts | 276° |
| 2026-05-01 14:44 | 53.25837 | 0.31052 | 35140 ft | 451 kts | 276° |
| 2026-05-01 14:44 | 53.27480 | 0.15668 | 35134 ft | 450 kts | 276° |
| 2026-05-01 14:45 | 53.29110 | 0.00210 | 35134 ft | 450 kts | 276° |
| 2026-05-01 14:46 | 53.30184 | -0.10095 | 35135 ft | 449 kts | 276° |
| 2026-05-01 14:46 | 53.31775 | -0.25531 | 35133 ft | 449 kts | 276° |
| 2026-05-01 14:47 | 53.32824 | -0.35821 | 35131 ft | 449 kts | 276° |
| 2026-05-01 14:48 | 53.34383 | -0.51278 | 35133 ft | 449 kts | 276° |
| 2026-05-01 14:48 | 53.35922 | -0.66752 | 35128 ft | 449 kts | 276° |
| 2026-05-01 14:49 | 53.37938 | -0.87324 | 35119 ft | 449 kts | 276° |
| 2026-05-01 14:50 | 53.39923 | -1.07983 | 35114 ft | 449 kts | 276° |
| 2026-05-01 14:51 | 53.41389 | -1.23495 | 35108 ft | 449 kts | 276° |
| 2026-05-01 14:52 | 53.42835 | -1.39029 | 35111 ft | 449 kts | 275° |
| 2026-05-01 14:53 | 53.44254 | -1.54495 | 35113 ft | 449 kts | 275° |
| 2026-05-01 14:53 | 53.45195 | -1.64877 | 35112 ft | 450 kts | 275° |
| 2026-05-01 14:54 | 53.46128 | -1.75274 | 35118 ft | 450 kts | 275° |
| 2026-05-01 14:54 | 53.47051 | -1.85666 | 35117 ft | 450 kts | 275° |
| 2026-05-01 14:55 | 53.47964 | -1.96056 | 35122 ft | 450 kts | 275° |
| 2026-05-01 14:55 | 53.48869 | -2.06461 | 35147 ft | 450 kts | 275° |
| 2026-05-01 14:56 | 53.49760 | -2.16803 | 35124 ft | 451 kts | 275° |
| 2026-05-01 14:56 | 53.50647 | -2.27219 | 35128 ft | 451 kts | 275° |
| 2026-05-01 14:57 | 53.51525 | -2.37643 | 35140 ft | 451 kts | 275° |
| 2026-05-01 14:57 | 53.52826 | -2.53292 | 35138 ft | 451 kts | 275° |
| 2026-05-01 14:58 | 53.53682 | -2.63736 | 35140 ft | 451 kts | 274° |
| 2026-05-01 14:58 | 53.54531 | -2.74200 | 35146 ft | 451 kts | 274° |
| 2026-05-01 14:59 | 53.55370 | -2.84661 | 35154 ft | 451 kts | 274° |
| 2026-05-01 14:59 | 53.56200 | -2.95122 | 35196 ft | 451 kts | 274° |
| 2026-05-01 15:00 | 53.57420 | -3.10741 | 35163 ft | 450 kts | 274° |
| 2026-05-01 15:01 | 53.58229 | -3.21241 | 35159 ft | 452 kts | 273° |
| 2026-05-01 15:01 | 53.59030 | -3.31763 | 35153 ft | 453 kts | 273° |
| 2026-05-01 15:01 | 53.59427 | -3.37018 | 35011 ft | 453 kts | 273° |
| 2026-05-01 15:02 | 53.59821 | -3.42278 | 34593 ft | 451 kts | 273° |
| 2026-05-01 15:02 | 53.60080 | -3.45744 | 34282 ft | 451 kts | 273° |
| 2026-05-01 15:02 | 53.60595 | -3.52671 | 33522 ft | 448 kts | 273° |
| 2026-05-01 15:02 | 53.60977 | -3.57840 | 32879 ft | 442 kts | 272° |
| 2026-05-01 15:03 | 53.61354 | -3.62956 | 32251 ft | 437 kts | 273° |
| 2026-05-01 15:03 | 53.62055 | -3.67925 | 31635 ft | 440 kts | 287° |
| 2026-05-01 15:03 | 53.63183 | -3.72692 | 31042 ft | 436 kts | 287° |
| 2026-05-01 15:03 | 53.64283 | -3.77430 | 30445 ft | 432 kts | 287° |
| 2026-05-01 15:04 | 53.65390 | -3.82126 | 29790 ft | 429 kts | 287° |
| 2026-05-01 15:04 | 53.66494 | -3.86776 | 29109 ft | 426 kts | 287° |
| 2026-05-01 15:04 | 53.67593 | -3.91396 | 28388 ft | 424 kts | 287° |
| 2026-05-01 15:04 | 53.68685 | -3.95993 | 27639 ft | 421 kts | 287° |
| 2026-05-01 15:05 | 53.69769 | -4.00560 | 26935 ft | 417 kts | 287° |
| 2026-05-01 15:05 | 53.70837 | -4.05070 | 26236 ft | 412 kts | 287° |
| 2026-05-01 15:05 | 53.71643 | -4.09641 | 25532 ft | 400 kts | 271° |
| 2026-05-01 15:05 | 53.71829 | -4.14266 | 24895 ft | 392 kts | 269° |
| 2026-05-01 15:06 | 53.72032 | -4.18840 | 24282 ft | 389 kts | 268° |
| 2026-05-01 15:06 | 53.72214 | -4.23308 | 23662 ft | 386 kts | 268° |
| 2026-05-01 15:06 | 53.72388 | -4.27812 | 22925 ft | 382 kts | 268° |
| 2026-05-01 15:06 | 53.72555 | -4.32276 | 22207 ft | 379 kts | 268° |
| 2026-05-01 15:07 | 53.72719 | -4.36714 | 21510 ft | 376 kts | 268° |
| 2026-05-01 15:07 | 53.72879 | -4.41116 | 20823 ft | 374 kts | 268° |
| 2026-05-01 15:07 | 53.73037 | -4.45490 | 20154 ft | 371 kts | 268° |
| 2026-05-01 15:07 | 53.73192 | -4.49835 | 19505 ft | 369 kts | 268° |
| 2026-05-01 15:08 | 53.73342 | -4.54090 | 18875 ft | 366 kts | 268° |
| 2026-05-01 15:08 | 53.73492 | -4.58378 | 18210 ft | 364 kts | 268° |
| 2026-05-01 15:08 | 53.73639 | -4.62632 | 17495 ft | 361 kts | 268° |
| 2026-05-01 15:08 | 53.73783 | -4.66853 | 16863 ft | 360 kts | 268° |
| 2026-05-01 15:09 | 53.73926 | -4.71092 | 16308 ft | 362 kts | 268° |
| 2026-05-01 15:09 | 53.74069 | -4.75355 | 15750 ft | 364 kts | 268° |
| 2026-05-01 15:09 | 53.74211 | -4.79631 | 15206 ft | 366 kts | 268° |
| 2026-05-01 15:09 | 53.74353 | -4.83921 | 14680 ft | 366 kts | 269° |
| 2026-05-01 15:10 | 53.74495 | -4.88225 | 14155 ft | 367 kts | 269° |
| 2026-05-01 15:10 | 53.74772 | -4.96803 | 13039 ft | 368 kts | 269° |
| 2026-05-01 15:10 | 53.74909 | -5.01125 | 12464 ft | 368 kts | 269° |
| 2026-05-01 15:11 | 53.75045 | -5.05444 | 11912 ft | 368 kts | 269° |
| 2026-05-01 15:11 | 53.75177 | -5.14033 | 10818 ft | 361 kts | 257° |
| 2026-05-01 15:11 | 53.74481 | -5.18051 | 10311 ft | 354 kts | 247° |
| 2026-05-01 15:12 | 53.73693 | -5.21990 | 9771 ft | 353 kts | 248° |
| 2026-05-01 15:12 | 53.72089 | -5.29790 | 8673 ft | 349 kts | 243° |
| 2026-05-01 15:12 | 53.70836 | -5.33235 | 8142 ft | 342 kts | 229° |
| 2026-05-01 15:13 | 53.66694 | -5.42324 | 7159 ft | 296 kts | 230° |
| 2026-05-01 15:14 | 53.64401 | -5.47469 | 7111 ft | 261 kts | 230° |
| 2026-05-01 15:14 | 53.63318 | -5.49910 | 6989 ft | 259 kts | 230° |
| 2026-05-01 15:14 | 53.61213 | -5.54809 | 6715 ft | 258 kts | 232° |
| 2026-05-01 15:15 | 53.59201 | -5.59767 | 6434 ft | 254 kts | 232° |
| 2026-05-01 15:15 | 53.57208 | -5.64672 | 6066 ft | 253 kts | 232° |
| 2026-05-01 15:16 | 53.55208 | -5.69515 | 5703 ft | 254 kts | 232° |
| 2026-05-01 15:16 | 53.53200 | -5.74363 | 5349 ft | 251 kts | 232° |
| 2026-05-01 15:17 | 53.51208 | -5.79162 | 4995 ft | 250 kts | 232° |
| 2026-05-01 15:18 | 53.47504 | -5.84993 | 4427 ft | 240 kts | 209° |
| 2026-05-01 15:18 | 53.46069 | -5.86307 | 4254 ft | 230 kts | 208° |
| 2026-05-01 15:19 | 53.42110 | -5.89835 | 3751 ft | 207 kts | 208° |
| 2026-05-01 15:19 | 53.40476 | -5.93496 | 3475 ft | 207 kts | 262° |
| 2026-05-01 15:19 | 53.40490 | -5.95842 | 3507 ft | 193 kts | 269° |
| 2026-05-01 15:20 | 53.40683 | -6.00121 | 3092 ft | 180 kts | 272° |
| 2026-05-01 15:20 | 53.40792 | -6.02213 | 2884 ft | 180 kts | 272° |
| 2026-05-01 15:20 | 53.40907 | -6.04277 | 2650 ft | 177 kts | 272° |
| 2026-05-01 15:21 | 53.41011 | -6.06303 | 2421 ft | 171 kts | 272° |
| 2026-05-01 15:21 | 53.41126 | -6.08246 | 2219 ft | 164 kts | 270° |
| 2026-05-01 15:21 | 53.41224 | -6.10094 | 2017 ft | 154 kts | 269° |
| 2026-05-01 15:21 | 53.41316 | -6.11856 | 1797 ft | 150 kts | 269° |
| 2026-05-01 15:22 | 53.41503 | -6.15326 | 1418 ft | 147 kts | 266° |
| 2026-05-01 15:22 | 53.41593 | -6.17028 | 1186 ft | 146 kts | 266° |
| 2026-05-01 15:22 | 53.41679 | -6.18732 | 1013 ft | 146 kts | 266° |
| 2026-05-01 15:23 | 53.41774 | -6.20425 | 847 ft | 145 kts | 271° |
| 2026-05-01 15:23 | 53.41862 | -6.22094 | 623 ft | 144 kts | 272° |
| 2026-05-01 15:23 | 53.41954 | -6.23756 | 410 ft | 142 kts | 270° |
| 2026-05-01 15:23 | 53.42046 | -6.25391 | 232 ft | 139 kts | 270° |
| 2026-05-01 15:24 | 53.42117 | -6.26740 | 214 ft | 81 kts | 275° |
| 2026-05-01 15:24 | 53.42153 | -6.27385 | 213 ft | 36 kts | 274° |
| 2026-05-01 15:24 | 53.42186 | -6.27785 | 214 ft | 33 kts | 289° |
| 2026-05-01 15:24 | 53.42260 | -6.28022 | 216 ft | 8 kts | 300° |
| 2026-05-01 15:25 | 53.42294 | -6.28110 | 214 ft | 12 kts | 317° |
| 2026-05-01 15:25 | 53.42364 | -6.28066 | 217 ft | 15 kts | 84° |
| 2026-05-01 15:25 | 53.42352 | -6.27856 | 219 ft | 21 kts | 96° |
| 2026-05-01 15:25 | 53.42337 | -6.27578 | 217 ft | 27 kts | 95° |
| 2026-05-01 15:26 | 53.42318 | -6.27236 | 213 ft | 32 kts | 95° |
| 2026-05-01 15:26 | 53.42295 | -6.26831 | 213 ft | 37 kts | 96° |
| 2026-05-01 15:26 | 53.42273 | -6.26423 | 213 ft | 35 kts | 95° |
| 2026-05-01 15:26 | 53.42274 | -6.26151 | 216 ft | 19 kts | 63° |
| 2026-05-01 15:27 | 53.42371 | -6.25976 | 218 ft | 22 kts | 46° |
| 2026-05-01 15:27 | 53.42486 | -6.25777 | 213 ft | 26 kts | 45° |
| 2026-05-01 15:27 | 53.42622 | -6.25549 | 213 ft | 29 kts | 45° |
| 2026-05-01 15:28 | 53.42828 | -6.25265 | 213 ft | 12 kts | 339° |
| 2026-05-01 15:28 | 53.42908 | -6.25326 | 215 ft | 10 kts | 340° |
| 2026-05-01 15:28 | 53.42958 | -6.25261 | 213 ft | 11 kts | 65° |
| 2026-05-01 15:29 | 53.42958 | -6.25103 | 213 ft | 7 kts | 94° |
| 2026-05-01 15:29 | 53.42956 | -6.25035 | 213 ft | 4 kts | 80° |
| 2026-05-01 15:29 | 53.43001 | -6.25011 | 219 ft | 2 kts | 5° |
| 2026-05-01 15:30 | 53.43012 | -6.25009 | 215 ft | 0 kts | 6° |